Spiros — SY3056 — position and weather

sailwx.info

Track history (hours):
 
Tides and Currents Weather Stations Pressure Air Temp Water Temp Dewpoint Dewpoint Depression Visibility Wind Speed Wind Dir Waves Ship Positions

Spiros

Last reported at 2018-Apr-04 23:09 UTC. Time now 2018-Apr-21 15:32 UTC.
Position N 38°01' E 024°04'.
Warning: this ship's position is 16 days out of date.

Length 25 m.

MMSI: 240232000.

Date/timePositionNaut miles runAvg speedWind from/ knotsBaromVisibWave heightAir tempDewpointWater temp
2018-Apr-04 23:09N 38°01' E 024°04'1 9.2
2018-Apr-04 23:00N 38°01' E 024°06'3 0.4
2018-Apr-04 14:36N 38°01' E 024°09'3 8.9
2018-Apr-04 14:18N 38°01' E 024°06'3 8.8
2018-Apr-04 13:58N 38°02' E 024°02'1 0.0
2018-Apr-03 23:53N 38°01' E 024°02'2 0.3
2018-Apr-03 15:32N 38°00' E 024°04'2 6.8
2018-Apr-03 15:18N 38°01' E 024°02'4 0.5
2018-Apr-03 08:18N 38°05' E 024°01'2 4.4
2018-Apr-03 07:49N 38°07' E 024°01'  
2018-Mar-31 05:44N 37°44' E 023°46'2 9.1
2018-Mar-31 05:30N 37°46' E 023°44'5 9.2
2018-Mar-31 05:00N 37°47' E 023°39'4 8.8
2018-Mar-31 04:30N 37°48' E 023°33'2 0.2
2018-Mar-30 16:50N 37°47' E 023°36'2 5.1
2018-Mar-30 16:30N 37°49' E 023°36'4 7.8
2018-Mar-30 16:00N 37°52' E 023°38'4 7.9
2018-Mar-30 15:30N 37°56' E 023°37'21 0.7
2018-Mar-29 08:23N 38°05' E 024°00'  
Track history (hours):
 
Tides and Currents Weather Stations Pressure Air Temp Water Temp Dewpoint Dewpoint Depression Visibility Wind Speed Wind Dir Waves Ship Positions

Spiros

Last reported at 2018-Apr-04 23:09 UTC. Time now 2018-Apr-21 15:32 UTC.
Position N 38°01' E 024°04'.
Warning: this ship's position is 16 days out of date.

Length 25 m.

MMSI: 240232000.

Date/timePositionNaut miles runAvg speedWind from/ knotsBaromVisibWave heightAir tempDewpointWater temp
2018-Apr-04 23:09N 38°01' E 024°04'1 9.2
2018-Apr-04 23:00N 38°01' E 024°06'3 0.4
2018-Apr-04 14:36N 38°01' E 024°09'3 8.9
2018-Apr-04 14:18N 38°01' E 024°06'3 8.8
2018-Apr-04 13:58N 38°02' E 024°02'1 0.0
2018-Apr-03 23:53N 38°01' E 024°02'2 0.3
2018-Apr-03 15:32N 38°00' E 024°04'2 6.8
2018-Apr-03 15:18N 38°01' E 024°02'4 0.5
2018-Apr-03 08:18N 38°05' E 024°01'2 4.4
2018-Apr-03 07:49N 38°07' E 024°01'  
2018-Mar-31 05:44N 37°44' E 023°46'2 9.1
2018-Mar-31 05:30N 37°46' E 023°44'5 9.2
2018-Mar-31 05:00N 37°47' E 023°39'4 8.8
2018-Mar-31 04:30N 37°48' E 023°33'2 0.2
2018-Mar-30 16:50N 37°47' E 023°36'2 5.1
2018-Mar-30 16:30N 37°49' E 023°36'4 7.8
2018-Mar-30 16:00N 37°52' E 023°38'4 7.9
2018-Mar-30 15:30N 37°56' E 023°37'21 0.7
2018-Mar-29 08:23N 38°05' E 024°00'  

Dump ship's entire track history